aviador You're here:

KCBE Decoded Metar

CUMBERLAND REG in MD, USA
Report Time2017-11-25 05:06:00
UTC Time2017-11-25 05:30:25
Flight Rules vfr VFR
WindCalm
Visibility9999 m
Phenomena:N/A
Clouds:N/A
Expected CloudBase > 1,200 ft AGL from Temp-Dew spread
CeilingNone
Temp00°C (ISA -13)
Dew Point-3°C (80% RH)
AAT-2.4°C
QNH1013 hPa
Density Alt-797 ft
Elevation774 ft
Report Wrong Elevation
Raw Report
METAR KCBE 250506Z AUTO 00000KT 10SM CLR 00/M03 A2990 RMK AO1=

Extra information for KCBE:More info

Metar Taf Metar & Taf Last 4 Metars F.Rules Stats Wind Profile Meteogram Temp Stats Airport Information Weather charts Add Link Nearby VenuesMetar ALERT Operation Metar Decoded Social comments

AIRNAV info for KCBE